Time;durP1;ratioP1;P1;durP2;ratioP2;P2;SDS_P1;SDS_P2;PMS_P1;PMS_P2;Temp;Humidity;BMP_temperature;BMP_pressure;BME280_temperature;BME280_humidity;BME280_pressure;Samples;Min_cycle;Max_cycle;Signal;HPM_P1;HPM_P2
2021/04/19 00:00:14;;;;;;;14.07;8.57;;;12.10;99.90;;;;;;4991759;28;20064;-84
2021/04/19 00:02:40;;;;;;;12.15;8.30;;;12.00;99.90;;;;;;4991608;28;20069;-82
2021/04/19 00:05:11;;;;;;;14.20;9.00;;;12.00;99.90;;;;;;4992424;28;20089;-73
2021/04/19 00:07:37;;;;;;;16.27;8.80;;;12.00;99.90;;;;;;4992622;28;20034;-83
2021/04/19 00:10:05;;;;;;;13.68;9.15;;;12.00;99.80;;;;;;4991215;28;20044;-83
2021/04/19 00:12:32;;;;;;;;;;;12.00;99.90;;;;;;4991598;28;20156;-84
2021/04/19 00:14:57;;;;;;;13.80;8.95;;;12.00;99.90;;;;;;4991587;28;20004;-85
2021/04/19 00:17:23;;;;;;;16.65;9.00;;;12.00;99.90;;;;;;4991183;28;20120;-84
2021/04/19 00:19:49;;;;;;;15.95;9.95;;;12.00;99.90;;;;;;4993353;28;20499;-83
2021/04/19 00:22:14;;;;;;;20.33;12.00;;;12.10;99.90;;;;;;5006818;28;20120;-82
2021/04/19 00:24:40;;;;;;;15.65;10.25;;;12.20;99.90;;;;;;4991861;28;20046;-82
2021/04/19 00:27:06;;;;;;;14.93;10.52;;;12.10;99.90;;;;;;5006884;28;20042;-82
2021/04/19 00:29:31;;;;;;;17.77;11.40;;;12.20;99.90;;;;;;4991743;28;20038;-83
2021/04/19 00:31:57;;;;;;;16.13;11.05;;;12.20;99.90;;;;;;4991972;28;20172;-84
2021/04/19 00:34:23;;;;;;;15.98;10.50;;;12.30;99.90;;;;;;4991308;28;20042;-85
2021/04/19 00:36:48;;;;;;;18.10;11.13;;;12.30;99.90;;;;;;5006188;28;20038;-83
2021/04/19 00:39:14;;;;;;;20.23;11.75;;;12.30;99.90;;;;;;4991081;28;20473;-83
2021/04/19 00:41:40;;;;;;;20.30;12.57;;;12.30;99.90;;;;;;4991210;28;20022;-84
2021/04/19 00:44:05;;;;;;;18.35;11.73;;;12.30;99.90;;;;;;4991524;28;20030;-82
2021/04/19 00:46:31;;;;;;;17.00;10.82;;;12.30;99.90;;;;;;4991292;28;20069;-82
2021/04/19 00:48:57;;;;;;;17.92;10.60;;;12.40;99.90;;;;;;4990102;28;20599;-82
2021/04/19 00:51:23;;;;;;;16.13;10.85;;;12.40;99.90;;;;;;4991179;28;20034;-82
2021/04/19 00:53:49;;;;;;;17.83;11.77;;;12.40;99.90;;;;;;4990774;28;20030;-84
2021/04/19 00:56:15;;;;;;;17.60;10.65;;;12.40;99.90;;;;;;4990596;28;20031;-85
2021/04/19 00:58:44;;;;;;;16.65;10.98;;;12.40;99.90;;;;;;4992830;28;20014;-85
2021/04/19 01:01:10;;;;;;;19.33;11.60;;;12.40;99.90;;;;;;4991156;28;20045;-85
2021/04/19 01:03:36;;;;;;;19.33;12.65;;;12.40;99.90;;;;;;4991250;28;20058;-84
2021/04/19 01:06:02;;;;;;;20.75;13.02;;;12.40;99.90;;;;;;4991006;28;20038;-84
2021/04/19 01:08:27;;;;;;;22.10;13.50;;;12.40;99.90;;;;;;4990528;28;20042;-83
2021/04/19 01:10:55;;;;;;;25.38;13.77;;;12.40;99.90;;;;;;4991973;28;20026;-84
2021/04/19 01:13:21;;;;;;;17.65;11.85;;;12.40;99.90;;;;;;4990554;28;20629;-83
2021/04/19 01:15:46;;;;;;;19.35;12.57;;;12.40;99.90;;;;;;4990648;28;20042;-82
2021/04/19 01:18:14;;;;;;;22.77;13.57;;;12.40;99.90;;;;;;4990466;28;20125;-82
2021/04/19 01:20:44;;;;;;;21.40;12.63;;;12.40;99.90;;;;;;4990962;28;20042;-83
2021/04/19 01:23:10;;;;;;;18.30;11.95;;;12.40;99.90;;;;;;4990111;28;20038;-83
2021/04/19 01:25:36;;;;;;;18.90;11.88;;;12.30;99.90;;;;;;4992290;28;20046;-84
2021/04/19 01:28:03;;;;;;;14.93;10.88;;;12.30;99.90;;;;;;4988994;28;20066;-83
2021/04/19 01:30:34;;;;;;;22.95;11.48;;;12.30;99.90;;;;;;4990406;28;20042;-83
2021/04/19 01:33:01;;;;;;;16.67;11.52;;;12.30;99.90;;;;;;5005835;28;20034;-85
2021/04/19 01:35:26;;;;;;;17.15;11.80;;;12.30;99.90;;;;;;4990555;28;20469;-84
2021/04/19 01:37:52;;;;;;;17.80;12.15;;;12.30;99.90;;;;;;4991723;28;20072;-86
2021/04/19 01:40:18;;;;;;;18.40;11.95;;;12.30;99.90;;;;;;4990321;28;20042;-85
2021/04/19 01:42:45;;;;;;;18.88;12.40;;;12.30;99.90;;;;;;4990268;28;20042;-84
2021/04/19 01:45:12;;;;;;;21.08;12.73;;;12.40;99.90;;;;;;4990481;28;20077;-83
2021/04/19 01:47:37;;;;;;;20.20;11.93;;;12.40;99.90;;;;;;4990156;28;20105;-84
2021/04/19 01:50:16;;;;;;;20.02;12.13;;;12.40;99.90;;;;;;4991851;28;20126;-84
2021/04/19 01:52:42;;;;;;;24.20;12.75;;;12.40;99.90;;;;;;4990643;28;20070;-84
2021/04/19 01:55:14;;;;;;;23.27;13.70;;;12.40;99.90;;;;;;4990143;28;20104;-85
2021/04/19 01:57:44;;;;;;;22.42;13.50;;;12.40;99.90;;;;;;4989304;28;20424;-85
2021/04/19 02:00:11;;;;;;;21.23;13.73;;;12.40;99.90;;;;;;4990253;28;20041;-85
2021/04/19 02:02:48;;;;;;;25.73;14.45;;;12.40;99.90;;;;;;4990850;28;20027;-84
2021/04/19 02:05:32;;;;;;;25.15;14.68;;;12.50;99.90;;;;;;4994107;28;20022;-84
2021/04/19 02:08:26;;;;;;;25.77;15.90;;;12.40;99.90;;;;;;4995304;28;20063;-84
2021/04/19 02:11:13;;;;;;;28.75;16.45;;;12.30;99.90;;;;;;4993991;28;20042;-84
2021/04/19 02:13:53;;;;;;;26.08;15.93;;;12.30;99.90;;;;;;4994447;28;20456;-85
2021/04/19 02:16:22;;;;;;;29.27;15.73;;;12.30;99.90;;;;;;4993572;28;20396;-84
2021/04/19 02:19:14;;;;;;;27.65;16.35;;;12.30;99.90;;;;;;4993539;28;20030;-84
2021/04/19 02:22:06;;;;;;;26.98;16.48;;;12.20;99.90;;;;;;4993659;28;20030;-85
2021/04/19 02:24:35;;;;;;;33.47;17.77;;;12.20;99.90;;;;;;5009136;28;20384;-86
2021/04/19 02:27:08;;;;;;;30.67;16.45;;;12.20;99.90;;;;;;4993487;28;20151;-83
2021/04/19 02:29:37;;;;;;;28.05;17.23;;;12.10;99.90;;;;;;4997390;28;20054;-84
2021/04/19 02:32:12;;;;;;;29.75;17.40;;;12.10;99.90;;;;;;4995411;28;20030;-84
2021/04/19 02:34:39;;;;;;;30.80;17.52;;;12.10;99.90;;;;;;5008888;28;20061;-85
2021/04/19 02:37:06;;;;;;;30.75;17.63;;;12.20;99.90;;;;;;4993041;28;20127;-83
2021/04/19 02:39:37;;;;;;;36.40;17.73;;;12.20;99.90;;;;;;5008909;28;20034;-83
2021/04/19 02:42:04;;;;;;;29.10;17.55;;;12.20;99.90;;;;;;5008789;28;20035;-83
2021/04/19 02:44:32;;;;;;;31.67;17.52;;;12.10;99.90;;;;;;5008469;28;20037;-84
2021/04/19 02:46:58;;;;;;;33.38;19.02;;;12.10;99.90;;;;;;4994998;28;20031;-83
2021/04/19 02:49:29;;;;;;;31.58;18.75;;;12.00;99.90;;;;;;4993416;28;20171;-84
2021/04/19 02:52:01;;;;;;;35.20;18.98;;;12.10;99.90;;;;;;4992828;28;20224;-84
2021/04/19 02:54:28;;;;;;;30.48;19.42;;;12.10;99.90;;;;;;4991915;28;20144;-84
2021/04/19 02:56:55;;;;;;;33.83;19.63;;;12.10;99.90;;;;;;4992831;28;20050;-84
2021/04/19 02:59:24;;;;;;;30.25;18.05;;;12.10;99.90;;;;;;4992911;28;20027;-84
2021/04/19 03:01:54;;;;;;;32.40;19.25;;;12.00;99.90;;;;;;4994665;28;20022;-85
2021/04/19 03:04:26;;;;;;;32.70;18.70;;;12.00;99.90;;;;;;4993167;28;20049;-84
2021/04/19 03:06:54;;;;;;;32.28;18.65;;;12.00;99.90;;;;;;4992664;28;20147;-84
2021/04/19 03:09:23;;;;;;;34.72;19.00;;;12.00;99.90;;;;;;4992985;28;20357;-83
2021/04/19 03:11:57;;;;;;;31.70;18.77;;;12.00;99.90;;;;;;4992734;28;20033;-83
2021/04/19 03:14:34;;;;;;;31.73;17.88;;;12.00;99.90;;;;;;4991960;28;20124;-84
2021/04/19 03:17:05;;;;;;;30.42;17.67;;;12.00;99.90;;;;;;4993896;28;20014;-84
2021/04/19 03:19:35;;;;;;;30.50;18.00;;;11.90;99.90;;;;;;4992472;28;20039;-85
2021/04/19 03:22:02;;;;;;;33.38;17.92;;;11.80;99.90;;;;;;4991233;28;20046;-85
2021/04/19 03:24:30;;;;;;;39.33;18.63;;;11.80;99.90;;;;;;4992577;28;20050;-84
2021/04/19 03:26:59;;;;;;;31.67;17.58;;;11.70;99.90;;;;;;4992506;28;20038;-84
2021/04/19 03:29:26;;;;;;;34.50;18.77;;;11.70;99.90;;;;;;4992448;28;20452;-83
2021/04/19 03:31:58;;;;;;;36.50;19.42;;;11.70;99.90;;;;;;4994137;28;20019;-85
2021/04/19 03:34:30;;;;;;;31.20;18.17;;;11.60;99.90;;;;;;4992834;28;20064;-84
2021/04/19 03:37:04;;;;;;;34.50;18.63;;;11.50;99.90;;;;;;4992252;28;20080;-84
2021/04/19 03:39:31;;;;;;;32.10;18.35;;;11.40;99.90;;;;;;4992565;28;20358;-84
2021/04/19 03:41:58;;;;;;;34.53;19.23;;;11.40;99.90;;;;;;4992402;28;20030;-84
2021/04/19 03:44:30;;;;;;;30.30;17.42;;;11.30;99.90;;;;;;4992174;28;20026;-85
2021/04/19 03:46:57;;;;;;;34.47;18.38;;;11.40;99.90;;;;;;4994039;28;20497;-83
2021/04/19 03:49:30;;;;;;;32.83;18.10;;;11.40;99.90;;;;;;4992257;28;20113;-83
2021/04/19 03:52:00;;;;;;;34.15;18.27;;;11.40;99.90;;;;;;4990304;28;20034;-84
2021/04/19 03:54:31;;;;;;;31.70;18.38;;;11.40;99.90;;;;;;4992054;28;20085;-85
2021/04/19 03:57:01;;;;;;;33.70;17.83;;;11.40;99.90;;;;;;4991945;28;20373;-84
2021/04/19 03:59:28;;;;;;;34.22;17.48;;;11.30;99.90;;;;;;4991753;28;20034;-83
2021/04/19 04:01:56;;;;;;;33.30;17.73;;;11.30;99.90;;;;;;4993403;28;20022;-85
2021/04/19 04:04:22;;;;;;;30.08;18.45;;;11.30;99.90;;;;;;4990842;28;20038;-87
2021/04/19 04:06:49;;;;;;;29.15;18.02;;;11.30;99.90;;;;;;4991837;28;20129;-84
2021/04/19 04:09:16;;;;;;;34.30;17.15;;;11.30;99.90;;;;;;4991965;28;20075;-84
2021/04/19 04:11:43;;;;;;;26.58;16.45;;;11.20;99.90;;;;;;4992088;28;20042;-84
2021/04/19 04:14:08;;;;;;;28.83;15.90;;;11.30;99.90;;;;;;4991897;28;20026;-85
2021/04/19 04:16:42;;;;;;;31.42;17.38;;;11.20;99.90;;;;;;4993203;28;20033;-83
2021/04/19 04:19:09;;;;;;;31.85;18.27;;;11.20;99.90;;;;;;4990372;28;20101;-84
2021/04/19 04:21:36;;;;;;;37.05;17.77;;;11.20;99.90;;;;;;4991940;28;20046;-84
2021/04/19 04:24:02;;;;;;;33.10;16.45;;;11.20;99.90;;;;;;4991593;28;20065;-85
2021/04/19 04:26:28;;;;;;;32.08;16.58;;;11.20;99.90;;;;;;4991621;28;20461;-85
2021/04/19 04:28:57;;;;;;;27.63;16.75;;;11.10;99.90;;;;;;4993113;28;20038;-84
2021/04/19 04:31:23;;;;;;;26.02;16.10;;;11.10;99.90;;;;;;4991390;28;20043;-84
2021/04/19 04:33:50;;;;;;;28.52;16.75;;;11.00;99.90;;;;;;4991372;28;20034;-83
2021/04/19 04:36:17;;;;;;;28.65;15.63;;;11.10;99.90;;;;;;4991585;28;20668;-84
2021/04/19 04:38:42;;;;;;;26.35;15.70;;;11.10;99.90;;;;;;5006376;28;20073;-84
2021/04/19 04:41:08;;;;;;;33.30;16.30;;;11.10;99.90;;;;;;5006667;28;20033;-83
2021/04/19 04:43:37;;;;;;;25.10;15.90;;;11.20;99.90;;;;;;4992973;28;20065;-83
2021/04/19 04:46:17;;;;;;;27.95;15.07;;;11.10;99.90;;;;;;4990126;28;20030;-82
2021/04/19 04:48:59;;;;;;;23.95;15.00;;;11.10;99.90;;;;;;4990741;28;20448;-81
2021/04/19 04:51:28;;;;;;;25.15;15.23;;;11.10;99.90;;;;;;4990900;28;20038;-81
2021/04/19 04:53:55;;;;;;;24.83;14.55;;;11.00;99.90;;;;;;4990633;28;20038;-84
2021/04/19 04:56:27;;;;;;;26.27;14.65;;;11.10;99.90;;;;;;4991103;28;20050;-85
2021/04/19 04:58:55;;;;;;;26.08;16.00;;;11.10;99.90;;;;;;4993211;28;20026;-85
2021/04/19 05:01:23;;;;;;;26.42;15.57;;;11.20;99.90;;;;;;4990788;28;20084;-83
2021/04/19 05:03:50;;;;;;;31.25;14.70;;;11.20;99.90;;;;;;5005860;28;20061;-82
2021/04/19 05:06:17;;;;;;;25.27;14.32;;;11.10;99.80;;;;;;4990645;28;20435;-81
2021/04/19 05:08:42;;;;;;;30.67;15.23;;;11.10;99.80;;;;;;4990333;28;20022;-81
2021/04/19 05:11:10;;;;;;;22.80;13.20;;;11.10;99.90;;;;;;4990225;28;20737;-80
2021/04/19 05:13:36;;;;;;;23.33;14.50;;;11.10;99.90;;;;;;4991968;28;20683;-82
2021/04/19 05:16:02;;;;;;;22.98;14.23;;;11.10;99.80;;;;;;4989995;28;20049;-82
2021/04/19 05:18:28;;;;;;;26.98;14.70;;;11.00;99.70;;;;;;4989382;28;20046;-83
2021/04/19 05:20:55;;;;;;;23.10;13.95;;;11.00;99.90;;;;;;5005599;28;20217;-84
2021/04/19 05:23:21;;;;;;;28.67;16.10;;;10.90;99.70;;;;;;4990252;28;20088;-81
2021/04/19 05:25:49;;;;;;;22.35;14.15;;;11.00;99.80;;;;;;4991032;28;20014;-86
2021/04/19 05:28:18;;;;;;;24.60;14.35;;;11.00;99.60;;;;;;4990344;28;20104;-82
2021/04/19 05:30:48;;;;;;;23.10;14.15;;;11.00;99.70;;;;;;4993118;28;20062;-82
2021/04/19 05:33:15;;;;;;;26.30;14.02;;;10.90;99.60;;;;;;4990173;28;20097;-80
2021/04/19 05:35:41;;;;;;;22.10;13.05;;;11.00;99.70;;;;;;4990119;28;20129;-81
2021/04/19 05:38:07;;;;;;;29.08;13.35;;;11.00;99.50;;;;;;4992074;28;20062;-78
2021/04/19 05:40:34;;;;;;;23.50;14.00;;;10.90;99.40;;;;;;4995568;28;20029;-76
2021/04/19 05:43:02;;;;;;;22.08;13.07;;;11.00;99.70;;;;;;4990386;28;20106;-76
2021/04/19 05:45:28;;;;;;;;;;;10.90;99.50;;;;;;4975038;28;20415;-84
2021/04/19 05:47:54;;;;;;;24.25;13.50;;;10.90;99.70;;;;;;4974910;28;19910;-89
2021/04/19 05:50:23;;;;;;;22.65;12.70;;;10.90;99.70;;;;;;4974974;28;20041;-82
2021/04/19 05:52:52;;;;;;;22.88;14.68;;;10.90;99.70;;;;;;4976428;28;20019;-83
2021/04/19 05:55:21;;;;;;;23.92;14.23;;;11.00;99.80;;;;;;4978353;28;20139;-82
2021/04/19 05:57:56;;;;;;;20.52;12.80;;;11.00;99.70;;;;;;4977968;28;20043;-85
2021/04/19 06:00:37;;;;;;;24.75;14.13;;;11.10;99.70;;;;;;4977918;28;20045;-84
2021/04/19 06:03:41;;;;;;;25.67;14.75;;;11.10;99.70;;;;;;4977708;28;20042;-81
2021/04/19 06:06:35;;;;;;;29.27;16.45;;;11.10;99.70;;;;;;4978276;28;20018;-85
2021/04/19 06:09:10;;;;;;;21.58;13.43;;;11.20;99.80;;;;;;4970965;28;20027;-77
2021/04/19 06:11:44;;;;;;;24.85;13.82;;;11.20;99.60;;;;;;4992320;28;20035;-83
2021/04/19 06:14:11;;;;;;;25.38;13.93;;;11.20;99.70;;;;;;4976038;28;20027;-84
2021/04/19 06:16:38;;;;;;;22.55;13.05;;;11.30;99.70;;;;;;4979250;28;20026;-84
2021/04/19 06:19:11;;;;;;;24.80;13.07;;;11.30;99.30;;;;;;4978309;28;20042;-83
2021/04/19 06:21:39;;;;;;;21.98;12.57;;;11.30;99.20;;;;;;4977271;28;20042;-83
2021/04/19 06:24:06;;;;;;;22.17;12.48;;;11.40;99.20;;;;;;4976900;28;20049;-80
2021/04/19 06:26:33;;;;;;;21.55;13.90;;;11.50;99.30;;;;;;4976012;28;20038;-86
2021/04/19 06:28:59;;;;;;;23.75;13.15;;;11.60;99.20;;;;;;4977367;28;20673;-83
2021/04/19 06:31:26;;;;;;;27.23;13.15;;;11.70;99.20;;;;;;4975891;28;20061;-82
2021/04/19 06:34:06;;;;;;;26.75;13.63;;;11.70;99.20;;;;;;4990865;28;20031;-85
2021/04/19 06:36:34;;;;;;;24.70;13.52;;;11.80;98.90;;;;;;4991131;28;20065;-82
2021/04/19 06:39:00;;;;;;;29.35;12.73;;;11.80;98.90;;;;;;4975616;28;20050;-83
2021/04/19 06:41:26;;;;;;;22.52;12.73;;;11.90;98.80;;;;;;4975974;28;20074;-84
2021/04/19 06:43:54;;;;;;;27.70;12.88;;;11.90;98.50;;;;;;4977613;28;20023;-89
2021/04/19 06:52:18;;;;;;;23.30;12.13;;;12.00;98.30;;;;;;4999170;28;20351;-91
2021/04/19 06:58:06;;;;;;;23.05;11.63;;;11.90;98.20;;;;;;4998271;28;20057;-88
2021/04/19 07:04:04;;;;;;;23.40;12.50;;;11.90;98.00;;;;;;4997536;28;20049;-88
2021/04/19 07:09:55;;;;;;;19.15;11.85;;;11.80;98.00;;;;;;4997406;28;20037;-84
2021/04/19 07:12:24;;;;;;;22.83;13.18;;;11.70;98.20;;;;;;4995804;28;20447;-84
2021/04/19 07:18:13;;;;;;;22.85;12.73;;;11.70;98.00;;;;;;4996839;28;20026;-81
2021/04/19 07:24:02;;;;;;;23.00;13.25;;;11.60;98.20;;;;;;4996415;28;20045;-85
2021/04/19 07:29:50;;;;;;;24.60;13.52;;;11.80;98.20;;;;;;4997001;28;20065;-86
2021/04/19 07:35:37;;;;;;;22.45;12.52;;;11.80;98.10;;;;;;4998206;28;20037;-84
2021/04/19 07:41:45;;;;;;;27.10;13.43;;;11.80;98.10;;;;;;4998757;28;20029;-86
2021/04/19 07:47:42;;;;;;;25.17;13.75;;;11.80;98.10;;;;;;4994861;28;20088;-85
2021/04/19 07:50:12;;;;;;;27.33;13.90;;;11.80;98.20;;;;;;4992934;28;20081;-82
2021/04/19 07:52:53;;;;;;;24.88;13.48;;;11.90;98.20;;;;;;4993792;28;20049;-85
2021/04/19 07:55:30;;;;;;;20.98;13.82;;;11.90;98.10;;;;;;4991807;28;20042;-82
2021/04/19 07:57:57;;;;;;;23.88;13.82;;;11.90;98.10;;;;;;5006031;28;20030;-83
2021/04/19 08:00:32;;;;;;;23.90;12.77;;;11.90;98.10;;;;;;4990708;28;20122;-85
2021/04/19 08:03:07;;;;;;;23.85;14.27;;;11.80;97.90;;;;;;4992143;28;20506;-83
2021/04/19 08:05:48;;;;;;;24.65;14.52;;;11.90;97.90;;;;;;4991599;28;20044;-83
2021/04/19 08:08:28;;;;;;;22.25;13.75;;;11.80;97.70;;;;;;4991141;28;20515;-87
2021/04/19 08:11:09;;;;;;;24.73;14.57;;;11.80;97.80;;;;;;5008798;28;20577;-85
2021/04/19 08:13:35;;;;;;;29.88;15.82;;;11.90;98.00;;;;;;4991924;28;20046;-87
2021/04/19 08:16:14;;;;;;;25.58;15.93;;;12.00;97.70;;;;;;4990045;28;20045;-88
2021/04/19 08:18:42;;;;;;;25.98;14.40;;;12.10;97.40;;;;;;4991469;28;20058;-86
2021/04/19 08:21:08;;;;;;;27.23;13.60;;;12.10;97.50;;;;;;4991552;28;20048;-84
2021/04/19 08:23:43;;;;;;;26.73;15.88;;;12.20;97.60;;;;;;5006521;28;20121;-83
2021/04/19 08:26:11;;;;;;;31.65;18.90;;;12.20;97.50;;;;;;4990800;28;20476;-87
2021/04/19 08:28:49;;;;;;;30.58;18.00;;;12.20;97.10;;;;;;4992902;28;20030;-86
2021/04/19 08:31:17;;;;;;;35.10;18.58;;;12.10;97.00;;;;;;5005687;28;20034;-85
2021/04/19 08:33:44;;;;;;;31.13;18.45;;;12.10;97.10;;;;;;4991130;28;20046;-84
2021/04/19 08:36:15;;;;;;;31.05;17.58;;;12.20;97.00;;;;;;4990616;28;20025;-84
2021/04/19 08:38:41;;;;;;;29.58;17.80;;;12.30;97.10;;;;;;4989574;28;20050;-84
2021/04/19 08:41:10;;;;;;;28.63;16.80;;;12.40;96.90;;;;;;4992944;28;20362;-84
2021/04/19 08:43:38;;;;;;;24.70;14.77;;;12.50;97.00;;;;;;4991024;28;20388;-82
2021/04/19 08:46:05;;;;;;;25.92;15.13;;;12.50;96.70;;;;;;5004651;28;20148;-83
2021/04/19 08:48:31;;;;;;;25.83;14.30;;;12.60;96.80;;;;;;4988647;28;20065;-81
2021/04/19 08:51:01;;;;;;;24.85;15.40;;;12.60;96.80;;;;;;4990478;28;20054;-81
2021/04/19 08:53:28;;;;;;;23.35;14.73;;;12.60;97.00;;;;;;4989233;28;20030;-84
2021/04/19 08:55:54;;;;;;;27.17;14.70;;;12.60;97.30;;;;;;4991917;28;20117;-82
2021/04/19 08:58:22;;;;;;;27.98;16.00;;;12.70;97.30;;;;;;4990142;28;20041;-81
2021/04/19 09:00:51;;;;;;;32.78;16.10;;;12.50;97.30;;;;;;4989899;28;20035;-82
2021/04/19 09:03:18;;;;;;;25.65;15.18;;;12.50;97.40;;;;;;4990075;28;20037;-84
2021/04/19 09:05:44;;;;;;;29.38;16.63;;;12.50;97.40;;;;;;4989165;28;20038;-80
2021/04/19 09:08:21;;;;;;;30.40;16.75;;;12.50;97.40;;;;;;4989912;28;20081;-82
2021/04/19 09:11:06;;;;;;;28.00;15.23;;;12.50;97.40;;;;;;4991588;28;20081;-83
2021/04/19 09:13:36;;;;;;;24.48;15.02;;;12.50;97.20;;;;;;4989742;28;20472;-84
2021/04/19 09:16:18;;;;;;;22.45;14.00;;;12.50;97.10;;;;;;4990337;28;20066;-80
2021/04/19 09:18:54;;;;;;;28.80;14.85;;;12.50;97.00;;;;;;4990354;28;20058;-80
2021/04/19 09:21:34;;;;;;;26.17;15.63;;;12.50;97.20;;;;;;4989877;28;20093;-81
2021/04/19 09:24:00;;;;;;;34.10;18.30;;;12.60;97.20;;;;;;4990268;28;20066;-81
2021/04/19 09:26:49;;;;;;;24.75;14.43;;;12.70;97.00;;;;;;4989895;28;20064;-82
2021/04/19 09:29:30;;;;;;;26.33;15.55;;;12.50;97.10;;;;;;4990098;28;20104;-82
2021/04/19 09:31:59;;;;;;;35.00;15.43;;;12.50;97.20;;;;;;4992312;28;20030;-82
2021/04/19 09:34:43;;;;;;;31.35;16.38;;;12.50;97.30;;;;;;5005243;28;20034;-81
2021/04/19 09:37:10;;;;;;;31.77;16.15;;;12.40;97.20;;;;;;4989733;28;20154;-82
2021/04/19 09:40:06;;;;;;;35.55;15.68;;;12.50;97.60;;;;;;4990245;28;20034;-81
2021/04/19 09:42:54;;;;;;;28.05;16.08;;;12.50;97.20;;;;;;4986646;28;20035;-83
2021/04/19 09:45:42;;;;;;;25.17;14.43;;;12.50;97.30;;;;;;4989800;28;20030;-82
2021/04/19 09:48:27;;;;;;;27.92;15.60;;;12.50;97.10;;;;;;4990072;28;20047;-81
2021/04/19 09:50:58;;;;;;;28.80;14.88;;;12.50;97.10;;;;;;5004261;28;20419;-80
2021/04/19 09:53:25;;;;;;;29.83;15.75;;;12.50;97.10;;;;;;4989795;28;20038;-82
2021/04/19 09:55:51;;;;;;;36.58;16.60;;;12.50;97.00;;;;;;4991318;28;20057;-80
2021/04/19 09:58:18;;;;;;;26.65;16.10;;;12.60;97.10;;;;;;4989883;28;20085;-84
2021/04/19 10:01:06;;;;;;;29.05;14.60;;;12.80;96.90;;;;;;4988452;28;20038;-80
2021/04/19 10:03:33;;;;;;;23.75;14.40;;;12.90;96.70;;;;;;4988027;28;20231;-83
2021/04/19 10:06:02;;;;;;;25.17;14.98;;;12.90;96.60;;;;;;4989675;28;20583;-85
2021/04/19 10:08:29;;;;;;;27.33;14.77;;;12.90;96.30;;;;;;4989421;28;20034;-82
2021/04/19 10:10:57;;;;;;;30.17;14.50;;;12.90;96.30;;;;;;4991436;28;20077;-84
2021/04/19 10:13:28;;;;;;;24.33;13.32;;;13.00;96.40;;;;;;4989568;28;20035;-80
2021/04/19 10:16:12;;;;;;;24.08;13.70;;;12.90;96.20;;;;;;4989175;28;20057;-80
2021/04/19 10:18:41;;;;;;;23.50;14.30;;;13.00;96.30;;;;;;4988207;28;20217;-81
2021/04/19 10:21:08;;;;;;;22.10;13.40;;;13.10;96.10;;;;;;4989682;28;20049;-79
2021/04/19 10:23:46;;;;;;;27.38;13.27;;;13.10;96.00;;;;;;4990147;28;20084;-81
2021/04/19 10:26:12;;;;;;;25.95;13.82;;;13.10;95.90;;;;;;4992689;28;20026;-79
2021/04/19 10:28:42;;;;;;;21.67;13.23;;;13.20;95.90;;;;;;4993134;28;20026;-81
2021/04/19 10:31:21;;;;;;;25.77;14.23;;;13.10;95.80;;;;;;4992904;28;20100;-83
2021/04/19 10:33:53;;;;;;;24.50;13.52;;;13.10;95.80;;;;;;4992886;28;20045;-83
2021/04/19 10:36:26;;;;;;;25.75;13.20;;;13.10;95.90;;;;;;4993341;28;20367;-86
2021/04/19 10:38:54;;;;;;;23.15;13.40;;;13.20;95.70;;;;;;4992941;28;20030;-82
2021/04/19 10:41:34;;;;;;;20.85;12.65;;;13.10;95.60;;;;;;4992618;28;20033;-77
2021/04/19 10:44:00;;;;;;;25.63;13.40;;;13.10;95.50;;;;;;4994135;28;20036;-82
2021/04/19 10:46:29;;;;;;;22.38;13.10;;;13.10;95.50;;;;;;4992750;28;20038;-83
2021/04/19 10:48:56;;;;;;;21.23;12.63;;;13.10;95.40;;;;;;5007767;28;20062;-82
2021/04/19 10:51:25;;;;;;;23.63;12.30;;;13.20;95.40;;;;;;4992208;28;20034;-83
2021/04/19 10:53:53;;;;;;;22.98;13.13;;;13.50;95.20;;;;;;4992227;28;20034;-83
2021/04/19 10:56:24;;;;;;;20.58;12.48;;;13.50;94.70;;;;;;4992182;28;20026;-83
2021/04/19 10:58:55;;;;;;;23.85;14.32;;;13.50;94.40;;;;;;5009358;28;20026;-80
2021/04/19 11:01:24;;;;;;;20.80;12.07;;;13.70;94.60;;;;;;4992277;28;20046;-82
2021/04/19 11:03:50;;;;;;;22.15;11.98;;;13.70;94.20;;;;;;5007982;28;20027;-81
2021/04/19 11:06:16;;;;;;;18.55;12.52;;;13.50;94.40;;;;;;5006819;28;20184;-83
2021/04/19 11:08:46;;;;;;;20.02;12.38;;;13.40;94.40;;;;;;5007690;28;20526;-88
2021/04/19 11:11:34;;;;;;;26.88;14.50;;;13.70;94.80;;;;;;4993255;28;20526;-88
2021/04/19 11:14:33;;;;;;;25.77;14.43;;;14.00;94.50;;;;;;4994237;28;20037;-84
2021/04/19 11:17:03;;;;;;;20.70;12.32;;;14.10;94.20;;;;;;4992862;28;20073;-84
2021/04/19 11:19:42;;;;;;;22.25;12.88;;;14.10;93.90;;;;;;4992444;28;20053;-82
2021/04/19 11:22:28;;;;;;;20.35;12.45;;;14.20;94.10;;;;;;4991863;28;20192;-85
2021/04/19 11:24:55;;;;;;;25.90;13.15;;;14.20;94.10;;;;;;4992589;28;20380;-84
2021/04/19 11:27:27;;;;;;;20.63;12.73;;;14.30;94.10;;;;;;4991759;28;20034;-83
2021/04/19 11:29:53;;;;;;;24.33;13.82;;;14.30;93.90;;;;;;4992129;28;20403;-83
2021/04/19 11:32:31;;;;;;;31.45;14.48;;;14.30;93.90;;;;;;4992042;28;20030;-84
2021/04/19 11:34:58;;;;;;;45.00;18.17;;;14.30;93.90;;;;;;4992727;28;20393;-90
2021/04/19 11:37:31;;;;;;;31.40;15.50;;;14.40;93.90;;;;;;4992040;28;20039;-83
2021/04/19 11:39:57;;;;;;;34.83;15.48;;;14.40;93.70;;;;;;4991926;28;20066;-85
2021/04/19 11:42:32;;;;;;;28.55;14.40;;;14.50;93.80;;;;;;4990764;28;20081;-81
2021/04/19 11:44:58;;;;;;;25.45;14.38;;;14.50;93.60;;;;;;4991280;28;20034;-83
2021/04/19 11:47:23;;;;;;;26.17;15.18;;;14.60;93.70;;;;;;4991830;28;20423;-80
2021/04/19 11:49:51;;;;;;;24.27;14.38;;;14.70;93.70;;;;;;4992543;28;20380;-79
2021/04/19 11:52:17;;;;;;;;;;;14.80;93.30;;;;;;4992884;28;20372;-89
2021/04/19 11:54:43;;;;;;;24.08;14.57;;;14.70;93.10;;;;;;4992184;28;19917;-87
2021/04/19 11:57:08;;;;;;;24.00;14.18;;;14.80;93.10;;;;;;4992023;28;20034;-89
2021/04/19 11:59:34;;;;;;;24.85;14.57;;;14.70;93.00;;;;;;4990858;28;20051;-90
2021/04/19 12:02:04;;;;;;;33.20;15.30;;;14.80;93.10;;;;;;4993985;28;20029;-89
2021/04/19 12:04:30;;;;;;;24.60;14.02;;;14.90;93.00;;;;;;4992045;28;20055;-84
2021/04/19 12:06:56;;;;;;;23.17;13.82;;;14.90;92.90;;;;;;4991215;28;20542;-87
2021/04/19 12:09:22;;;;;;;23.85;13.50;;;14.90;92.70;;;;;;4990279;28;20081;-85
2021/04/19 12:11:47;;;;;;;21.80;13.48;;;15.00;92.60;;;;;;4991233;28;20050;-85
2021/04/19 12:14:13;;;;;;;23.27;13.27;;;14.90;92.70;;;;;;4990824;28;20031;-84
2021/04/19 12:16:39;;;;;;;22.05;13.45;;;15.10;92.60;;;;;;4993108;28;20710;-89
2021/04/19 12:19:05;;;;;;;19.70;12.43;;;15.20;92.50;;;;;;4991768;28;20097;-87
2021/04/19 12:21:31;;;;;;;20.80;12.25;;;15.30;91.90;;;;;;4992034;28;20034;-88
2021/04/19 12:23:56;;;;;;;19.17;12.25;;;15.40;91.90;;;;;;4992999;28;20050;-81
2021/04/19 12:26:22;;;;;;;21.20;12.75;;;15.60;91.80;;;;;;4990906;28;20384;-83
2021/04/19 12:28:47;;;;;;;18.30;12.60;;;15.60;91.40;;;;;;4992751;28;20737;-85
2021/04/19 12:31:13;;;;;;;20.92;12.80;;;15.70;91.20;;;;;;4991258;28;20129;-83
2021/04/19 12:33:39;;;;;;;25.25;13.90;;;15.90;91.30;;;;;;4991070;28;20487;-83
2021/04/19 12:36:06;;;;;;;23.30;14.43;;;16.00;91.20;;;;;;4990919;28;20065;-87
2021/04/19 12:38:31;;;;;;;20.42;12.70;;;16.00;91.10;;;;;;4990746;28;20033;-84
2021/04/19 12:40:57;;;;;;;22.20;12.57;;;15.80;90.80;;;;;;4992251;28;20112;-81
2021/04/19 12:43:23;;;;;;;22.10;13.35;;;15.80;91.00;;;;;;4990781;28;20038;-84
2021/04/19 12:45:50;;;;;;;20.52;12.32;;;16.00;91.20;;;;;;4990704;28;20144;-83
2021/04/19 12:48:15;;;;;;;21.77;12.65;;;15.90;91.00;;;;;;4990260;28;20046;-84
2021/04/19 12:50:41;;;;;;;20.38;12.38;;;15.80;91.00;;;;;;4993023;28;20049;-84
2021/04/19 12:53:08;;;;;;;22.63;13.15;;;15.90;91.10;;;;;;5007380;28;20195;-83
2021/04/19 12:55:35;;;;;;;22.15;13.88;;;15.90;91.20;;;;;;5007597;28;20019;-83
2021/04/19 12:58:01;;;;;;;20.58;13.48;;;16.20;91.10;;;;;;4990642;28;20030;-85
2021/04/19 13:00:27;;;;;;;23.08;14.05;;;16.10;90.70;;;;;;4991324;28;20099;-84
2021/04/19 13:02:54;;;;;;;23.63;14.32;;;16.00;90.50;;;;;;4991532;28;20034;-84
2021/04/19 13:05:19;;;;;;;24.45;13.27;;;16.10;90.80;;;;;;5006157;28;20027;-82
2021/04/19 13:07:47;;;;;;;21.90;13.50;;;16.20;90.60;;;;;;4993562;28;20448;-87
2021/04/19 13:10:13;;;;;;;24.33;13.48;;;16.20;90.50;;;;;;4992095;28;20026;-86
2021/04/19 13:12:39;;;;;;;21.80;12.00;;;16.30;90.30;;;;;;4990765;28;20052;-86
2021/04/19 13:15:07;;;;;;;22.25;12.80;;;16.20;90.20;;;;;;4991853;28;20030;-86
2021/04/19 13:17:33;;;;;;;20.85;12.68;;;16.20;90.30;;;;;;4991098;28;20034;-85